Aviation Digital Data Service (ADDS)

Output produced by METARs form (1935 UTC 23 January 2019)
found at http://www.aviationweather.gov/metar/data/
 
METAR text: HTKJ 231900Z 09020KT 9999 SCT028 SCT260 26/17 Q1014 NOSIG
Conditions at: HTKJ (KILIMANJARO AIRP, TZ) observed 1900 UTC 23 January 2019
Temperature: 26.0°C (79°F)
Dewpoint: 17.0°C (63°F) [RH = 58%]
Pressure (altimeter): 29.94 inches Hg (1014.0 mb)
Winds: from the E (90 degrees) at 23 MPH (20 knots; 10.3 m/s)
Visibility: 6 or more miles (10+ km)
Ceiling: at least 12,000 feet AGL
Clouds: scattered clouds at 2800 feet AGL
scattered clouds at 26000 feet AGL
Weather: no significant weather observed at this time

METAR text: HTKJ 231800Z 10020KT 9999 SCT030 SCT280 27/17 Q1014 NOSIG
Conditions at: HTKJ (KILIMANJARO AIRP, TZ) observed 1800 UTC 23 January 2019
Temperature: 27.0°C (81°F)
Dewpoint: 17.0°C (63°F) [RH = 54%]
Pressure (altimeter): 29.94 inches Hg (1014.0 mb)
Winds: from the E (100 degrees) at 23 MPH (20 knots; 10.3 m/s)
Visibility: 6 or more miles (10+ km)
Ceiling: at least 12,000 feet AGL
Clouds: scattered clouds at 3000 feet AGL
scattered clouds at 28000 feet AGL
Weather: no significant weather observed at this time

METAR text: HTKJ 231700Z 10018KT 9999 SCT030 SCT280 28/17 Q1013 NOSIG
Conditions at: HTKJ (KILIMANJARO AIRP, TZ) observed 1700 UTC 23 January 2019
Temperature: 28.0°C (82°F)
Dewpoint: 17.0°C (63°F) [RH = 51%]
Pressure (altimeter): 29.91 inches Hg (1013.0 mb)
Winds: from the E (100 degrees) at 21 MPH (18 knots; 9.3 m/s)
Visibility: 6 or more miles (10+ km)
Ceiling: at least 12,000 feet AGL
Clouds: scattered clouds at 3000 feet AGL
scattered clouds at 28000 feet AGL
Weather: no significant weather observed at this time

METAR text: HTKJ 231600Z 09010KT 9999 SCT030 BKN280 29/17 Q1012 NOSIG
Conditions at: HTKJ (KILIMANJARO AIRP, TZ) observed 1600 UTC 23 January 2019
Temperature: 29.0°C (84°F)
Dewpoint: 17.0°C (63°F) [RH = 48%]
Pressure (altimeter): 29.88 inches Hg (1012.0 mb)
Winds: from the E (90 degrees) at 12 MPH (10 knots; 5.1 m/s)
Visibility: 6 or more miles (10+ km)
Ceiling: 28000 feet AGL
Clouds: scattered clouds at 3000 feet AGL
broken clouds at 28000 feet AGL
Weather: no significant weather observed at this time

METAR text: HTKJ 231500Z 09010KT 9999 SCT032 BKN300 30/17 Q1012 NOSIG
Conditions at: HTKJ (KILIMANJARO AIRP, TZ) observed 1500 UTC 23 January 2019
Temperature: 30.0°C (86°F)
Dewpoint: 17.0°C (63°F) [RH = 46%]
Pressure (altimeter): 29.88 inches Hg (1012.0 mb)
Winds: from the E (90 degrees) at 12 MPH (10 knots; 5.1 m/s)
Visibility: 6 or more miles (10+ km)
Ceiling: 30000 feet AGL
Clouds: scattered clouds at 3200 feet AGL
broken clouds at 30000 feet AGL
Weather: no significant weather observed at this time

METAR text: HTKJ 231400Z 12012KT 9999 SCT032 BKN320 31/17 Q1011 NOSIG
Conditions at: HTKJ (KILIMANJARO AIRP, TZ) observed 1400 UTC 23 January 2019
Temperature: 31.0°C (88°F)
Dewpoint: 17.0°C (63°F) [RH = 43%]
Pressure (altimeter): 29.85 inches Hg (1011.0 mb)
Winds: from the ESE (120 degrees) at 14 MPH (12 knots; 6.2 m/s)
Visibility: 6 or more miles (10+ km)
Ceiling: 32000 feet AGL
Clouds: scattered clouds at 3200 feet AGL
broken clouds at 32000 feet AGL
Weather: no significant weather observed at this time

METAR text: HTKJ 231300Z 12012KT 9999 FEW032 BKN320 31/17 Q1012 NOSIG
Conditions at: HTKJ (KILIMANJARO AIRP, TZ) observed 1300 UTC 23 January 2019
Temperature: 31.0°C (88°F)
Dewpoint: 17.0°C (63°F) [RH = 43%]
Pressure (altimeter): 29.88 inches Hg (1012.0 mb)
Winds: from the ESE (120 degrees) at 14 MPH (12 knots; 6.2 m/s)
Visibility: 6 or more miles (10+ km)
Ceiling: 32000 feet AGL
Clouds: few clouds at 3200 feet AGL
broken clouds at 32000 feet AGL
Weather: no significant weather observed at this time

METAR text: HTKJ 231200Z 12012KT 9999 FEW032 BKN320 30/18 Q1012 NOSIG
Conditions at: HTKJ (KILIMANJARO AIRP, TZ) observed 1200 UTC 23 January 2019
Temperature: 30.0°C (86°F)
Dewpoint: 18.0°C (64°F) [RH = 49%]
Pressure (altimeter): 29.88 inches Hg (1012.0 mb)
Winds: from the ESE (120 degrees) at 14 MPH (12 knots; 6.2 m/s)
Visibility: 6 or more miles (10+ km)
Ceiling: 32000 feet AGL
Clouds: few clouds at 3200 feet AGL
broken clouds at 32000 feet AGL
Weather: no significant weather observed at this time

METAR text: HTKJ 231100Z 12012KT 9999 FEW032 BKN320 31/18 Q1013 NOSIG
Conditions at: HTKJ (KILIMANJARO AIRP, TZ) observed 1100 UTC 23 January 2019
Temperature: 31.0°C (88°F)
Dewpoint: 18.0°C (64°F) [RH = 46%]
Pressure (altimeter): 29.91 inches Hg (1013.0 mb)
Winds: from the ESE (120 degrees) at 14 MPH (12 knots; 6.2 m/s)
Visibility: 6 or more miles (10+ km)
Ceiling: 32000 feet AGL
Clouds: few clouds at 3200 feet AGL
broken clouds at 32000 feet AGL
Weather: no significant weather observed at this time

METAR text: HTKJ 231000Z 09007KT 9999 FEW032 BKN300 29/19 Q1014 NOSIG
Conditions at: HTKJ (KILIMANJARO AIRP, TZ) observed 1000 UTC 23 January 2019
Temperature: 29.0°C (84°F)
Dewpoint: 19.0°C (66°F) [RH = 55%]
Pressure (altimeter): 29.94 inches Hg (1014.0 mb)
Winds: from the E (90 degrees) at 8 MPH (7 knots; 3.6 m/s)
Visibility: 6 or more miles (10+ km)
Ceiling: 30000 feet AGL
Clouds: few clouds at 3200 feet AGL
broken clouds at 30000 feet AGL
Weather: no significant weather observed at this time

METAR text: HTKJ 230900Z 11010KT 9999 FEW028 BKN300 28/19 Q1015 NOSIG
Conditions at: HTKJ (KILIMANJARO AIRP, TZ) observed 0900 UTC 23 January 2019
Temperature: 28.0°C (82°F)
Dewpoint: 19.0°C (66°F) [RH = 58%]
Pressure (altimeter): 29.97 inches Hg (1015.0 mb)
Winds: from the ESE (110 degrees) at 12 MPH (10 knots; 5.1 m/s)
Visibility: 6 or more miles (10+ km)
Ceiling: 30000 feet AGL
Clouds: few clouds at 2800 feet AGL
broken clouds at 30000 feet AGL
Weather: no significant weather observed at this time

METAR text: HTKJ 230800Z 09010KT 9999 SCT027 BKN290 25/19 Q1016 NOSIG
Conditions at: HTKJ (KILIMANJARO AIRP, TZ) observed 0800 UTC 23 January 2019
Temperature: 25.0°C (77°F)
Dewpoint: 19.0°C (66°F) [RH = 69%]
Pressure (altimeter): 30.00 inches Hg (1016.0 mb)
Winds: from the E (90 degrees) at 12 MPH (10 knots; 5.1 m/s)
Visibility: 6 or more miles (10+ km)
Ceiling: 29000 feet AGL
Clouds: scattered clouds at 2700 feet AGL
broken clouds at 29000 feet AGL
Weather: no significant weather observed at this time

METAR text: HTKJ 230700Z 09010KT 9999 SCT026 BKN280 24/19 Q1017 NOSIG
Conditions at: HTKJ (KILIMANJARO AIRP, TZ) observed 0700 UTC 23 January 2019
Temperature: 24.0°C (75°F)
Dewpoint: 19.0°C (66°F) [RH = 74%]
Pressure (altimeter): 30.03 inches Hg (1017.0 mb)
Winds: from the E (90 degrees) at 12 MPH (10 knots; 5.1 m/s)
Visibility: 6 or more miles (10+ km)
Ceiling: 28000 feet AGL
Clouds: scattered clouds at 2600 feet AGL
broken clouds at 28000 feet AGL
Weather: no significant weather observed at this time

METAR text: HTKJ 230600Z 09006KT 9999 SCT026 BKN280 22/19 Q1016 NOSIG
Conditions at: HTKJ (KILIMANJARO AIRP, TZ) observed 0600 UTC 23 January 2019
Temperature: 22.0°C (72°F)
Dewpoint: 19.0°C (66°F) [RH = 83%]
Pressure (altimeter): 30.00 inches Hg (1016.0 mb)
Winds: from the E (90 degrees) at 7 MPH (6 knots; 3.1 m/s)
Visibility: 6 or more miles (10+ km)
Ceiling: 28000 feet AGL
Clouds: scattered clouds at 2600 feet AGL
broken clouds at 28000 feet AGL
Weather: no significant weather observed at this time

METAR text: HTKJ 230500Z 09010KT 9999 FEW026 BKN280 20/18 Q1016 NOSIG
Conditions at: HTKJ (KILIMANJARO AIRP, TZ) observed 0500 UTC 23 January 2019
Temperature: 20.0°C (68°F)
Dewpoint: 18.0°C (64°F) [RH = 88%]
Pressure (altimeter): 30.00 inches Hg (1016.0 mb)
Winds: from the E (90 degrees) at 12 MPH (10 knots; 5.1 m/s)
Visibility: 6 or more miles (10+ km)
Ceiling: 28000 feet AGL
Clouds: few clouds at 2600 feet AGL
broken clouds at 28000 feet AGL
Weather: no significant weather observed at this time

METAR text: HTKJ 230300Z 06005KT 9999 FEW026 BKN280 20/19 Q1015 NOSIG
Conditions at: HTKJ (KILIMANJARO AIRP, TZ) observed 0300 UTC 23 January 2019
Temperature: 20.0°C (68°F)
Dewpoint: 19.0°C (66°F) [RH = 94%]
Pressure (altimeter): 29.97 inches Hg (1015.0 mb)
Winds: from the ENE (60 degrees) at 6 MPH (5 knots; 2.6 m/s)
Visibility: 6 or more miles (10+ km)
Ceiling: 28000 feet AGL
Clouds: few clouds at 2600 feet AGL
broken clouds at 28000 feet AGL
Weather: no significant weather observed at this time

METAR text: HTKJ 230200Z 00000KT 9999 FEW026 BKN300 21/18 Q1015 NOSIG
Conditions at: HTKJ (KILIMANJARO AIRP, TZ) observed 0200 UTC 23 January 2019
Temperature: 21.0°C (70°F)
Dewpoint: 18.0°C (64°F) [RH = 83%]
Pressure (altimeter): 29.97 inches Hg (1015.0 mb)
Winds: calm
Visibility: 6 or more miles (10+ km)
Ceiling: 30000 feet AGL
Clouds: few clouds at 2600 feet AGL
broken clouds at 30000 feet AGL
Weather: no significant weather observed at this time

METAR text: HTKJ 230100Z 09009KT 9999 FEW026 BKN300 Q1014 21/18 NOSIG
Conditions at: HTKJ (KILIMANJARO AIRP, TZ) observed 0100 UTC 23 January 2019
Temperature: 21.0°C (70°F)
Dewpoint: 18.0°C (64°F) [RH = 83%]
Pressure (altimeter): 29.94 inches Hg (1014.0 mb)
Winds: from the E (90 degrees) at 10 MPH (9 knots; 4.6 m/s)
Visibility: 6 or more miles (10+ km)
Ceiling: 30000 feet AGL
Clouds: few clouds at 2600 feet AGL
broken clouds at 30000 feet AGL
Weather: no significant weather observed at this time

METAR text: HTKJ 230000Z 00000KT 9999 BKN300 22/17 Q1014 NOSIG
Conditions at: HTKJ (KILIMANJARO AIRP, TZ) observed 0000 UTC 23 January 2019
Temperature: 22.0°C (72°F)
Dewpoint: 17.0°C (63°F) [RH = 73%]
Pressure (altimeter): 29.94 inches Hg (1014.0 mb)
Winds: calm
Visibility: 6 or more miles (10+ km)
Ceiling: 30000 feet AGL
Clouds: broken clouds at 30000 feet AGL
Weather: no significant weather observed at this time

METAR text: HTKJ 222300Z 06010KT 9999 FEW026 BKN300 23/17 Q1014 NOSIG
Conditions at: HTKJ (KILIMANJARO AIRP, TZ) observed 2300 UTC 22 January 2019
Temperature: 23.0°C (73°F)
Dewpoint: 17.0°C (63°F) [RH = 69%]
Pressure (altimeter): 29.94 inches Hg (1014.0 mb)
Winds: from the ENE (60 degrees) at 12 MPH (10 knots; 5.1 m/s)
Visibility: 6 or more miles (10+ km)
Ceiling: 30000 feet AGL
Clouds: few clouds at 2600 feet AGL
broken clouds at 30000 feet AGL
Weather: no significant weather observed at this time

METAR text: HTKJ 222200Z 10006KT 9999 FEW026 BKN300 23/17 Q1014 NOSIG
Conditions at: HTKJ (KILIMANJARO AIRP, TZ) observed 2200 UTC 22 January 2019
Temperature: 23.0°C (73°F)
Dewpoint: 17.0°C (63°F) [RH = 69%]
Pressure (altimeter): 29.94 inches Hg (1014.0 mb)
Winds: from the E (100 degrees) at 7 MPH (6 knots; 3.1 m/s)
Visibility: 6 or more miles (10+ km)
Ceiling: 30000 feet AGL
Clouds: few clouds at 2600 feet AGL
broken clouds at 30000 feet AGL
Weather: no significant weather observed at this time

METAR text: HTKJ 222100Z 09005KT 9999 FEW026 BKN300 24/17 Q1015 NOSIG
Conditions at: HTKJ (KILIMANJARO AIRP, TZ) observed 2100 UTC 22 January 2019
Temperature: 24.0°C (75°F)
Dewpoint: 17.0°C (63°F) [RH = 65%]
Pressure (altimeter): 29.97 inches Hg (1015.0 mb)
Winds: from the E (90 degrees) at 6 MPH (5 knots; 2.6 m/s)
Visibility: 6 or more miles (10+ km)
Ceiling: 30000 feet AGL
Clouds: few clouds at 2600 feet AGL
broken clouds at 30000 feet AGL
Weather: no significant weather observed at this time

METAR text: HTKJ 222000Z 09010KT 9999 FEW027 BKN300 25/16 Q1015 NOSIG
Conditions at: HTKJ (KILIMANJARO AIRP, TZ) observed 2000 UTC 22 January 2019
Temperature: 25.0°C (77°F)
Dewpoint: 16.0°C (61°F) [RH = 57%]
Pressure (altimeter): 29.97 inches Hg (1015.0 mb)
Winds: from the E (90 degrees) at 12 MPH (10 knots; 5.1 m/s)
Visibility: 6 or more miles (10+ km)
Ceiling: 30000 feet AGL
Clouds: few clouds at 2700 feet AGL
broken clouds at 30000 feet AGL
Weather: no significant weather observed at this time

METAR text: HTKJ 221900Z 09015KT 9999 FEW027 SCT300 26/16 Q1014 NOSIG
Conditions at: HTKJ (KILIMANJARO AIRP, TZ) observed 1900 UTC 22 January 2019
Temperature: 26.0°C (79°F)
Dewpoint: 16.0°C (61°F) [RH = 54%]
Pressure (altimeter): 29.94 inches Hg (1014.0 mb)
Winds: from the E (90 degrees) at 17 MPH (15 knots; 7.7 m/s)
Visibility: 6 or more miles (10+ km)
Ceiling: at least 12,000 feet AGL
Clouds: few clouds at 2700 feet AGL
scattered clouds at 30000 feet AGL
Weather: no significant weather observed at this time

METAR text: HTKJ 221700Z 10011KT 9999 FEW028CB SCT029 27/18 Q1013 NOSIG
Conditions at: HTKJ (KILIMANJARO AIRP, TZ) observed 1700 UTC 22 January 2019
Temperature: 27.0°C (81°F)
Dewpoint: 18.0°C (64°F) [RH = 58%]
Pressure (altimeter): 29.91 inches Hg (1013.0 mb)
Winds: from the E (100 degrees) at 13 MPH (11 knots; 5.7 m/s)
Visibility: 6 or more miles (10+ km)
Ceiling: at least 12,000 feet AGL
Clouds: few clouds at 2800 feet AGL
scattered clouds at 2900 feet AGL
Weather: no significant weather observed at this time

METAR text: HTKJ 221600Z 08006KT 9999 FEW029CB BKN310 27/18 Q1012 NOSIG
Conditions at: HTKJ (KILIMANJARO AIRP, TZ) observed 1600 UTC 22 January 2019
Temperature: 27.0°C (81°F)
Dewpoint: 18.0°C (64°F) [RH = 58%]
Pressure (altimeter): 29.88 inches Hg (1012.0 mb)
Winds: from the E (80 degrees) at 7 MPH (6 knots; 3.1 m/s)
Visibility: 6 or more miles (10+ km)
Ceiling: 31000 feet AGL
Clouds: few clouds at 2900 feet AGL
broken clouds at 31000 feet AGL
Weather: no significant weather observed at this time

METAR text: HTKJ 221500Z 08010KT 9999 FEW031CB SCT032 BKN310 28/17 Q1012 NOSIG
Conditions at: HTKJ (KILIMANJARO AIRP, TZ) observed 1500 UTC 22 January 2019
Temperature: 28.0°C (82°F)
Dewpoint: 17.0°C (63°F) [RH = 51%]
Pressure (altimeter): 29.88 inches Hg (1012.0 mb)
Winds: from the E (80 degrees) at 12 MPH (10 knots; 5.1 m/s)
Visibility: 6 or more miles (10+ km)
Ceiling: 31000 feet AGL
Clouds: few clouds at 3100 feet AGL
scattered clouds at 3200 feet AGL
broken clouds at 31000 feet AGL
Weather: no significant weather observed at this time

METAR text: HTKJ 221400Z 08018KT 9999 FEW034CB SCT035 BKN310 28/19 Q1012 NOSIG
Conditions at: HTKJ (KILIMANJARO AIRP, TZ) observed 1400 UTC 22 January 2019
Temperature: 28.0°C (82°F)
Dewpoint: 19.0°C (66°F) [RH = 58%]
Pressure (altimeter): 29.88 inches Hg (1012.0 mb)
Winds: from the E (80 degrees) at 21 MPH (18 knots; 9.3 m/s)
Visibility: 6 or more miles (10+ km)
Ceiling: 31000 feet AGL
Clouds: few clouds at 3400 feet AGL
scattered clouds at 3500 feet AGL
broken clouds at 31000 feet AGL
Weather: no significant weather observed at this time

METAR text: HTKJ 221300Z 12006KT 9999 FEW034CB SCT035 BKN31 32/18 Q1011 NOSIG
Conditions at: HTKJ (KILIMANJARO AIRP, TZ) observed 1300 UTC 22 January 2019
Temperature: 32.0°C (90°F)
Dewpoint: 18.0°C (64°F) [RH = 43%]
Pressure (altimeter): 29.85 inches Hg (1011.0 mb)
Winds: from the ESE (120 degrees) at 7 MPH (6 knots; 3.1 m/s)
Visibility: 6 or more miles (10+ km)
Ceiling: at least 12,000 feet AGL
Clouds: few clouds at 3400 feet AGL
scattered clouds at 3500 feet AGL
Weather: no significant weather observed at this time

METAR text: HTKJ 221200Z 08010KT 9999 FEW034TCU SCT035 30/18 Q1012 NOSIG
Conditions at: HTKJ (KILIMANJARO AIRP, TZ) observed 1200 UTC 22 January 2019
Temperature: 30.0°C (86°F)
Dewpoint: 18.0°C (64°F) [RH = 49%]
Pressure (altimeter): 29.88 inches Hg (1012.0 mb)
Winds: from the E (80 degrees) at 12 MPH (10 knots; 5.1 m/s)
Visibility: 6 or more miles (10+ km)
Ceiling: at least 12,000 feet AGL
Clouds: few clouds at 3400 feet AGL
scattered clouds at 3500 feet AGL
Weather: no significant weather observed at this time

METAR text: HTKJ 221100Z 11012KT 9999 FEW034TCU SCT035 31/18 Q1013 NOSIG
Conditions at: HTKJ (KILIMANJARO AIRP, TZ) observed 1100 UTC 22 January 2019
Temperature: 31.0°C (88°F)
Dewpoint: 18.0°C (64°F) [RH = 46%]
Pressure (altimeter): 29.91 inches Hg (1013.0 mb)
Winds: from the ESE (110 degrees) at 14 MPH (12 knots; 6.2 m/s)
Visibility: 6 or more miles (10+ km)
Ceiling: at least 12,000 feet AGL
Clouds: few clouds at 3400 feet AGL
scattered clouds at 3500 feet AGL
Weather: no significant weather observed at this time

METAR text: HTKJ 221000Z 11014KT 9999 SCT033 SCT280 29/19 Q1014 NOSIG
Conditions at: HTKJ (KILIMANJARO AIRP, TZ) observed 1000 UTC 22 January 2019
Temperature: 29.0°C (84°F)
Dewpoint: 19.0°C (66°F) [RH = 55%]
Pressure (altimeter): 29.94 inches Hg (1014.0 mb)
Winds: from the ESE (110 degrees) at 16 MPH (14 knots; 7.2 m/s)
Visibility: 6 or more miles (10+ km)
Ceiling: at least 12,000 feet AGL
Clouds: scattered clouds at 3300 feet AGL
scattered clouds at 28000 feet AGL
Weather: no significant weather observed at this time

METAR text: HTKJ 220900Z 09015KT 9999 SCT031 SCT080 28/19 Q1015 NOSIG
Conditions at: HTKJ (KILIMANJARO AIRP, TZ) observed 0900 UTC 22 January 2019
Temperature: 28.0°C (82°F)
Dewpoint: 19.0°C (66°F) [RH = 58%]
Pressure (altimeter): 29.97 inches Hg (1015.0 mb)
Winds: from the E (90 degrees) at 17 MPH (15 knots; 7.7 m/s)
Visibility: 6 or more miles (10+ km)
Ceiling: at least 12,000 feet AGL
Clouds: scattered clouds at 3100 feet AGL
scattered clouds at 8000 feet AGL
Weather: no significant weather observed at this time

METAR text: HTKJ 220800Z 09010KT 9999 SCT029 BKN080 26/19 Q1016 NOSIG
Conditions at: HTKJ (KILIMANJARO AIRP, TZ) observed 0800 UTC 22 January 2019
Temperature: 26.0°C (79°F)
Dewpoint: 19.0°C (66°F) [RH = 65%]
Pressure (altimeter): 30.00 inches Hg (1016.0 mb)
Winds: from the E (90 degrees) at 12 MPH (10 knots; 5.1 m/s)
Visibility: 6 or more miles (10+ km)
Ceiling: 8000 feet AGL
Clouds: scattered clouds at 2900 feet AGL
broken clouds at 8000 feet AGL
Weather: no significant weather observed at this time

Forecast for: HTKJ (KILIMANJARO AIRP, TZ)
Text: TAF HTKJ 231700Z 2318/2418 09010KT 9999 SCT026
Forecast period: 1800 to 2300 UTC 23 January 2019
Forecast type: FROM: standard forecast or significant change
Winds: from the E (90 degrees) at 12 MPH (10 knots; 5.1 m/s)
Visibility: 6 or more miles 10+ km)
Ceiling: at least 12,000 feet AGL
Clouds: scattered clouds at 2600 feet AGL
Weather: no significant weather forecast for this period
Text: BECMG 2323/2401 FEW024
Forecast period: 2300 UTC 23 January 2019 to 1800 UTC 24 January 2019
Forecast type: BECOMING: Conditions expected to become as follows by 0100 UTC 24 January 2019
Winds: from the E (90 degrees) at 12 MPH (10 knots; 5.1 m/s)
Visibility: 6 or more miles 10+ km)
Ceiling: at least 12,000 feet AGL
Clouds: few clouds at 2400 feet AGL
Weather: no significant weather forecast for this period